Fort Mitchell, Virginia
Current Conditions -  °F | °C
As of 12:15 PM on Thursday 18 Dec 2014 (Local Time) from KCXE Reporting Station
Scattered Clouds Scattered Clouds  
Wind Chill: 46°   Ceiling: Unl
Heat Index: 46°   Visibility: 10mi
Dew Point: 25°   Wind: 0mph
Humidity: 45%   Direction: NA
Pressure: 30.13"   Gusts: NA
Location:  36.92°N, 78.49°W
Report Text: KCXE 181715Z AUTO 00000KT 10SM SCT120 08/M04 A3013 RMK AO1 T00751038
Loading
Personal Weather Stations






























Interactive Weather Map New forecast layout! Learn more

10-Day Weather Forecast

Advertisements
Track Severe Weather on mobile